Aviation Digital Data Service (ADDS)

Output produced by TAFs form (1329 UTC 25 September 2017)
found at http://www.aviationweather.gov/adds/tafs/
 
METAR text: RJOR 251200Z 15004KT 9999 FEW050 21/17 Q1015
Conditions at: RJOR (TOTTORI AIRPORT , JP) observed 1200 UTC 25 September 2017
Temperature: 21.0°C (70°F)
Dewpoint: 17.0°C (63°F) [RH = 78%]
Pressure (altimeter): 29.97 inches Hg (1015.0 mb)
Winds: from the SSE (150 degrees) at 5 MPH (4 knots; 2.1 m/s)
Visibility: 6 or more miles (10+ km)
Ceiling: at least 12,000 feet AGL
Clouds: few clouds at 5000 feet AGL
Weather: no significant weather observed at this time